createdAt,value
2019-02-17T00:01:15.355Z,54.57
2019-02-17T00:03:46.162Z,53.50
2019-02-17T00:06:16.443Z,54.40
2019-02-17T00:08:46.730Z,51.03
2019-02-17T00:11:17.037Z,56.37
2019-02-17T00:13:47.851Z,56.37
2019-02-17T00:16:18.713Z,57.67
2019-02-17T00:18:48.949Z,59.70
2019-02-17T00:21:19.701Z,48.10
2019-02-17T00:23:49.879Z,50.60
2019-02-17T00:26:20.297Z,50.77
2019-02-17T00:28:59.108Z,52.97
2019-02-17T00:31:22.551Z,49.57
2019-02-17T00:33:52.797Z,54.40
2019-02-17T00:36:23.102Z,46.47
2019-02-17T00:38:53.363Z,49.20
2019-02-17T00:41:23.655Z,51.03
2019-02-17T00:43:54.266Z,48.70
2019-02-17T00:46:25.513Z,49.07
2019-02-17T00:48:56.259Z,56.70
2019-02-17T00:51:26.503Z,55.97
2019-02-17T00:53:57.005Z,51.93
2019-02-17T00:56:27.257Z,52.70
2019-02-17T00:58:57.757Z,50.40
2019-02-17T01:01:29.196Z,50.63
2019-02-17T01:03:59.592Z,52.90
2019-02-17T01:06:29.879Z,51.20
2019-02-17T01:09:00.493Z,52.17
2019-02-17T01:11:31.932Z,49.73
2019-02-17T01:14:03.396Z,51.17
2019-02-17T01:16:35.400Z,47.13
2019-02-17T01:19:05.991Z,52.33
2019-02-17T01:21:36.262Z,55.27
2019-02-17T01:24:06.738Z,52.83
2019-02-17T01:26:36.992Z,53.07
2019-02-17T01:29:07.450Z,53.07
2019-02-17T01:31:37.689Z,52.87
2019-02-17T01:34:11.097Z,56.03
2019-02-17T01:36:41.357Z,49.97
2019-02-17T01:39:11.595Z,52.47
2019-02-17T01:41:42.283Z,55.23
2019-02-17T01:44:12.520Z,52.63
2019-02-17T01:46:43.361Z,56.03
2019-02-17T01:49:13.614Z,57.90
2019-02-17T01:51:44.100Z,50.73
2019-02-17T01:54:14.348Z,56.67
2019-02-17T01:56:44.863Z,57.40
2019-02-17T01:59:15.086Z,57.57
2019-02-17T02:01:45.374Z,50.30
2019-02-17T02:04:16.135Z,58.23
2019-02-17T02:06:46.369Z,57.33
2019-02-17T02:09:16.877Z,53.87
2019-02-17T02:11:47.117Z,53.57
2019-02-17T02:14:18.347Z,53.20
2019-02-17T02:16:50.315Z,55.97
2019-02-17T02:19:23.425Z,59.33
2019-02-17T02:21:54.220Z,52.70
2019-02-17T02:24:24.563Z,58.03
2019-02-17T02:26:55.194Z,50.80
2019-02-17T02:29:25.516Z,62.30
2019-02-17T02:31:56.268Z,54.57
2019-02-17T02:34:26.543Z,54.17
2019-02-17T02:36:56.958Z,53.40
2019-02-17T02:39:27.240Z,54.30
2019-02-17T02:41:57.575Z,55.93
2019-02-17T02:44:28.358Z,58.17
2019-02-17T02:46:58.768Z,59.43
2019-02-17T02:49:29.367Z,54.00
2019-02-17T02:52:00.249Z,53.93
2019-02-17T02:54:30.606Z,59.60
2019-02-17T02:57:00.871Z,59.27
2019-02-17T02:59:31.455Z,57.10
2019-02-17T03:02:01.738Z,56.93
2019-02-17T03:04:32.503Z,55.00
2019-02-17T03:07:09.249Z,59.87
2019-02-17T03:09:39.545Z,58.47
2019-02-17T03:12:09.820Z,58.43
2019-02-17T03:14:41.699Z,59.30
2019-02-17T03:17:11.976Z,56.83
2019-02-17T03:19:42.261Z,53.17
2019-02-17T03:22:13.330Z,60.93
2019-02-17T03:24:43.582Z,54.53
2019-02-17T03:27:13.897Z,58.43
2019-02-17T03:29:44.560Z,66.50
2019-02-17T03:32:14.815Z,60.40
2019-02-17T03:34:45.058Z,56.53
2019-02-17T03:37:15.510Z,61.43
2019-02-17T03:39:45.782Z,56.37
2019-02-17T03:42:16.047Z,60.93
2019-02-17T03:44:46.502Z,59.47
2019-02-17T03:47:16.757Z,57.00
2019-02-17T03:49:47.363Z,60.17
2019-02-17T03:52:18.352Z,59.73
2019-02-17T03:54:48.585Z,67.47
2019-02-17T03:57:18.817Z,56.60
2019-02-17T03:59:49.372Z,62.00
2019-02-17T04:02:20.799Z,57.80
2019-02-17T04:04:51.021Z,59.30
2019-02-17T04:07:21.592Z,58.17
2019-02-17T04:09:52.142Z,60.07
2019-02-17T04:12:22.839Z,60.90
2019-02-17T04:14:54.426Z,57.40
2019-02-17T04:17:24.749Z,54.83
2019-02-17T04:19:55.038Z,67.10
2019-02-17T04:22:26.203Z,59.53
2019-02-17T04:24:57.756Z,60.83
2019-02-17T04:27:28.072Z,56.93
2019-02-17T04:29:58.321Z,56.17
2019-02-17T04:32:28.678Z,57.47
2019-02-17T04:34:59.329Z,61.70
2019-02-17T04:37:30.081Z,60.20
2019-02-17T04:40:02.461Z,57.77
2019-02-17T04:42:32.935Z,57.17
2019-02-17T04:45:03.511Z,54.97
2019-02-17T04:47:33.818Z,52.47
2019-02-17T04:50:04.514Z,56.03
2019-02-17T04:52:35.406Z,59.97
2019-02-17T04:55:06.323Z,56.70
2019-02-17T04:57:36.579Z,57.67
2019-02-17T05:00:07.978Z,62.53
2019-02-17T05:02:38.405Z,63.50
2019-02-17T05:05:08.640Z,53.33
2019-02-17T05:07:38.934Z,65.27
2019-02-17T05:10:09.348Z,60.20
2019-02-17T05:12:39.945Z,60.50
2019-02-17T05:15:11.119Z,59.47
2019-02-17T05:17:41.680Z,60.37
2019-02-17T05:20:12.089Z,61.20
2019-02-17T05:22:43.591Z,63.60
2019-02-17T05:25:13.838Z,63.37
2019-02-17T05:27:44.317Z,62.67
2019-02-17T05:30:14.854Z,64.93
2019-02-17T05:32:45.398Z,62.57
2019-02-17T05:35:15.662Z,61.20
2019-02-17T05:37:46.156Z,61.27
2019-02-17T05:40:16.394Z,61.03
2019-02-17T05:42:46.647Z,63.03
2019-02-17T05:45:17.133Z,63.93
2019-02-17T05:47:47.300Z,56.53
2019-02-17T05:50:17.879Z,59.73
2019-02-17T05:52:48.118Z,70.00
2019-02-17T05:55:18.470Z,64.10
2019-02-17T05:57:48.861Z,61.93
2019-02-17T06:00:21.737Z,62.53
2019-02-17T06:02:51.986Z,57.77
2019-02-17T06:05:22.597Z,65.23
2019-02-17T06:07:52.924Z,60.53
2019-02-17T06:10:23.667Z,53.57
2019-02-17T06:12:53.896Z,60.97
2019-02-17T06:15:25.323Z,56.43
2019-02-17T06:17:55.632Z,61.00
2019-02-17T06:20:25.879Z,59.97
2019-02-17T06:22:56.643Z,58.27
2019-02-17T06:25:26.904Z,64.70
2019-02-17T06:27:57.651Z,65.00
2019-02-17T06:30:27.894Z,60.87
2019-02-17T06:32:58.400Z,59.57
2019-02-17T06:35:28.651Z,58.27
2019-02-17T06:37:59.476Z,57.07
2019-02-17T06:40:29.709Z,65.30
2019-02-17T06:43:00.238Z,53.40
2019-02-17T06:45:33.140Z,63.47
2019-02-17T06:48:03.588Z,58.67
2019-02-17T06:50:33.852Z,63.83
2019-02-17T06:53:04.799Z,58.53
2019-02-17T06:55:55.644Z,64.37
2019-02-17T06:58:26.125Z,61.40
2019-02-17T07:00:58.546Z,57.20
2019-02-17T07:03:29.072Z,61.53
2019-02-17T07:06:05.430Z,61.07
2019-02-17T07:08:35.988Z,60.17
2019-02-17T07:11:06.242Z,62.27
2019-02-17T07:13:38.529Z,62.37
2019-02-17T07:16:11.344Z,60.77
2019-02-17T07:18:42.363Z,64.30
2019-02-17T07:21:12.639Z,68.97
2019-02-17T07:23:43.276Z,66.87
2019-02-17T07:26:13.579Z,68.30
2019-02-17T07:28:44.642Z,63.97
2019-02-17T07:31:15.084Z,67.33
2019-02-17T07:33:45.790Z,67.80
2019-02-17T07:36:16.092Z,60.33
2019-02-17T07:38:46.593Z,70.20
2019-02-17T07:41:16.984Z,65.07
2019-02-17T07:43:47.946Z,69.80
2019-02-17T07:46:18.245Z,65.63
2019-02-17T07:48:48.953Z,61.63
2019-02-17T07:51:19.208Z,65.33
2019-02-17T07:53:50.687Z,68.93
2019-02-17T07:56:20.982Z,65.37
2019-02-17T07:58:51.494Z,63.93
2019-02-17T08:03:01.231Z,70.90
2019-02-17T08:05:31.714Z,70.05
2019-02-17T08:08:01.975Z,64.10
2019-02-17T08:10:32.459Z,63.13
2019-02-17T08:13:02.698Z,67.53
2019-02-17T08:15:33.209Z,63.70
2019-02-17T08:18:04.955Z,70.30
2019-02-17T08:20:36.595Z,66.73
2019-02-17T08:23:07.164Z,67.60
2019-02-17T08:25:38.125Z,63.57
2019-02-17T08:28:08.350Z,62.13
2019-02-17T08:30:38.844Z,66.57
2019-02-17T08:33:09.102Z,63.30
2019-02-17T08:35:39.391Z,62.90
2019-02-17T08:38:10.137Z,58.30
2019-02-17T08:40:40.462Z,63.40
2019-02-17T08:43:10.715Z,59.00
2019-02-17T08:45:41.145Z,64.20
2019-02-17T08:48:11.439Z,64.27
2019-02-17T08:50:41.720Z,64.80
2019-02-17T08:53:49.865Z,65.90
2019-02-17T08:56:20.519Z,61.43
2019-02-17T08:58:51.059Z,65.13
2019-02-17T09:01:21.323Z,61.77
2019-02-17T09:03:51.579Z,62.83
2019-02-17T09:06:22.192Z,62.37
2019-02-17T09:08:52.559Z,62.90
2019-02-17T09:11:23.573Z,64.23
2019-02-17T09:13:53.860Z,62.33
2019-02-17T09:16:24.327Z,64.87
2019-02-17T09:18:55.343Z,70.03
2019-02-17T09:21:25.998Z,65.80
2019-02-17T09:23:56.374Z,65.27
2019-02-17T09:26:29.550Z,65.77
2019-02-17T09:29:00.412Z,60.17
2019-02-17T09:31:31.921Z,64.47
2019-02-17T09:34:02.247Z,59.20
2019-02-17T09:36:32.678Z,60.60
2019-02-17T09:39:04.902Z,63.80
2019-02-17T09:41:35.815Z,60.70
2019-02-17T09:44:06.578Z,54.23
2019-02-17T09:46:36.840Z,58.70
2019-02-17T09:49:07.325Z,64.47
2019-02-17T09:51:37.758Z,56.50
2019-02-17T09:54:08.386Z,56.73
2019-02-17T09:56:38.998Z,61.57
2019-02-17T09:59:09.750Z,59.47
2019-02-17T10:01:40.026Z,63.13
2019-02-17T10:04:10.384Z,59.20
2019-02-17T10:06:40.678Z,60.67
2019-02-17T10:09:11.304Z,65.90
2019-02-17T10:11:41.715Z,63.00
2019-02-17T10:14:12.330Z,60.67
2019-02-17T10:16:42.578Z,55.73
2019-02-17T10:19:14.018Z,61.60
2019-02-17T10:21:44.245Z,64.23
2019-02-17T10:24:14.564Z,63.70
2019-02-17T10:26:45.712Z,67.53
2019-02-17T10:29:16.418Z,64.80
2019-02-17T10:31:47.179Z,59.27
2019-02-17T10:34:18.084Z,58.90
2019-02-17T10:36:48.342Z,64.23
2019-02-17T10:39:19.194Z,62.87
2019-02-17T10:41:49.451Z,63.20
2019-02-17T10:44:20.199Z,58.77
2019-02-17T10:46:50.582Z,60.30
2019-02-17T10:49:20.961Z,61.03
2019-02-17T10:51:51.278Z,60.87
2019-02-17T10:54:23.123Z,58.23
2019-02-17T10:56:53.912Z,60.50
2019-02-17T10:59:24.483Z,65.27
2019-02-17T11:01:54.734Z,59.93
2019-02-17T11:04:25.386Z,58.43
2019-02-17T11:06:55.658Z,60.83
2019-02-17T11:09:26.425Z,56.90
2019-02-17T11:11:56.693Z,56.83
2019-02-17T11:14:27.181Z,58.27
2019-02-17T11:16:57.476Z,62.70
2019-02-17T11:19:28.543Z,62.40
2019-02-17T11:21:58.906Z,59.73
2019-02-17T11:24:30.647Z,59.10
2019-02-17T11:27:01.457Z,50.37
2019-02-17T11:29:32.032Z,49.23
2019-02-17T11:32:02.285Z,41.90
2019-02-17T11:34:34.766Z,38.57
2019-02-17T11:37:05.018Z,41.80
2019-02-17T11:39:35.539Z,34.40
2019-02-17T11:42:05.841Z,40.90
2019-02-17T11:44:36.545Z,41.93
2019-02-17T11:47:07.449Z,41.67
2019-02-17T11:49:38.259Z,35.60
2019-02-17T11:52:08.493Z,41.93
2019-02-17T11:54:39.017Z,37.97
2019-02-17T11:57:09.190Z,41.47
2019-02-17T11:59:40.071Z,35.30
2019-02-17T12:02:10.318Z,31.40
2019-02-17T12:04:40.851Z,36.63
2019-02-17T12:07:11.258Z,26.50
2019-02-17T12:09:42.183Z,29.33
2019-02-17T12:12:13.737Z,32.73
2019-02-17T12:14:44.602Z,27.03
2019-02-17T12:17:14.818Z,29.70
2019-02-17T12:19:45.999Z,29.27
2019-02-17T12:22:30.563Z,28.27
2019-02-17T12:25:14.855Z,28.17
2019-02-17T12:28:03.467Z,28.17
2019-02-17T12:30:34.038Z,27.97
2019-02-17T12:33:04.323Z,25.03
2019-02-17T12:35:34.792Z,38.30
2019-02-17T12:38:05.055Z,29.10
2019-02-17T12:40:35.532Z,29.30
2019-02-17T12:43:05.787Z,29.47
2019-02-17T12:45:36.287Z,29.57
2019-02-17T12:48:06.571Z,33.33
2019-02-17T12:50:37.354Z,30.40
2019-02-17T12:53:07.671Z,32.80
2019-02-17T12:55:38.095Z,34.97
2019-02-17T12:58:09.033Z,32.60
2019-02-17T13:00:39.774Z,32.20
2019-02-17T13:03:10.097Z,29.33
2019-02-17T13:05:40.509Z,27.27
2019-02-17T13:08:10.900Z,35.20
2019-02-17T13:10:41.274Z,32.13
2019-02-17T13:13:11.567Z,27.57
2019-02-17T13:15:41.995Z,29.20
2019-02-17T13:18:12.247Z,34.67
2019-02-17T13:20:43.498Z,28.23
2019-02-17T13:23:13.717Z,30.97
2019-02-17T13:25:43.976Z,34.60
2019-02-17T13:28:14.958Z,27.43
2019-02-17T13:30:45.221Z,33.07
2019-02-17T13:33:15.562Z,32.40
2019-02-17T13:35:45.945Z,31.10
2019-02-17T13:38:16.320Z,27.43
2019-02-17T13:40:47.013Z,24.07
2019-02-17T13:43:17.308Z,26.77
2019-02-17T13:45:48.980Z,27.73
2019-02-17T13:48:19.258Z,36.13
2019-02-17T13:50:49.749Z,36.23
2019-02-17T13:53:20.002Z,32.53
2019-02-17T13:55:50.812Z,32.80
2019-02-17T13:58:21.489Z,35.23
2019-02-17T14:00:52.191Z,39.17
2019-02-17T14:03:22.502Z,37.50
2019-02-17T14:05:53.089Z,40.97
2019-02-17T14:08:23.327Z,41.57
2019-02-17T14:10:53.956Z,43.93
2019-02-17T14:13:24.301Z,40.10
2019-02-17T14:15:54.693Z,33.73
2019-02-17T14:18:24.960Z,34.23
2019-02-17T14:20:57.314Z,41.27
2019-02-17T14:23:27.590Z,36.90
2019-02-17T14:25:58.070Z,30.07
2019-02-17T14:28:28.778Z,37.00
2019-02-17T14:30:59.465Z,30.93
2019-02-17T14:33:29.687Z,30.03
2019-02-17T14:36:00.333Z,33.77
2019-02-17T14:38:30.618Z,29.90
2019-02-17T14:41:01.133Z,34.83
2019-02-17T14:43:31.514Z,36.47
2019-02-17T14:46:02.052Z,30.87
2019-02-17T14:48:32.355Z,34.70
2019-02-17T14:51:02.701Z,37.97
2019-02-17T14:53:33.050Z,39.30
2019-02-17T14:56:03.530Z,40.70
2019-02-17T14:58:34.306Z,47.37
2019-02-17T15:01:04.914Z,50.23
2019-02-17T15:03:36.265Z,55.27
2019-02-17T15:06:06.840Z,49.10
2019-02-17T15:08:37.115Z,48.90
2019-02-17T15:11:07.381Z,55.27
2019-02-17T15:13:37.850Z,52.20
2019-02-17T15:16:09.922Z,49.20
2019-02-17T15:18:40.364Z,47.73
2019-02-17T15:21:12.156Z,51.03
2019-02-17T15:23:42.412Z,45.83
2019-02-17T15:26:12.742Z,41.30
2019-02-17T15:28:50.677Z,52.60
2019-02-17T15:31:15.697Z,53.83
2019-02-17T15:33:47.141Z,44.33
2019-02-17T15:36:18.329Z,49.33
2019-02-17T15:38:48.597Z,49.20
2019-02-17T15:41:18.880Z,46.87
2019-02-17T15:43:49.381Z,48.73
2019-02-17T15:46:19.652Z,50.83
2019-02-17T15:48:49.894Z,49.97
2019-02-17T15:51:20.670Z,42.77
2019-02-17T15:53:50.927Z,52.97
2019-02-17T15:56:21.200Z,51.33
2019-02-17T15:58:52.271Z,49.30
2019-02-17T16:01:22.565Z,45.73
2019-02-17T16:03:52.992Z,45.60
2019-02-17T16:06:23.300Z,41.43
2019-02-17T16:08:53.609Z,39.33
2019-02-17T16:11:24.274Z,44.57
2019-02-17T16:13:54.540Z,43.10
2019-02-17T16:16:27.226Z,46.03
2019-02-17T16:18:57.458Z,37.00
2019-02-17T16:21:28.868Z,41.47
2019-02-17T16:23:59.027Z,42.73
2019-02-17T16:26:29.321Z,35.13
2019-02-17T16:28:59.820Z,36.37
2019-02-17T16:31:30.112Z,37.93
2019-02-17T16:34:00.463Z,39.00
2019-02-17T16:36:30.823Z,36.83
2019-02-17T16:39:01.093Z,29.33
2019-02-17T16:41:33.031Z,32.23
2019-02-17T16:44:03.612Z,30.60
2019-02-17T16:46:33.900Z,34.57
2019-02-17T16:49:04.204Z,33.07
2019-02-17T16:51:34.766Z,31.47
2019-02-17T16:54:05.193Z,35.27
2019-02-17T16:56:35.448Z,34.43
2019-02-17T16:59:06.162Z,27.30
2019-02-17T17:01:36.463Z,32.47
2019-02-17T17:04:06.950Z,24.70
2019-02-17T17:06:37.224Z,24.40
2019-02-17T17:09:09.534Z,25.17
2019-02-17T17:11:40.421Z,20.63
2019-02-17T17:14:10.916Z,24.23
2019-02-17T17:16:41.216Z,28.67
2019-02-17T17:19:11.471Z,27.13
2019-02-17T17:21:43.111Z,24.33
2019-02-17T17:24:13.450Z,27.67
2019-02-17T17:26:43.714Z,26.47
2019-02-17T17:29:14.766Z,24.67
2019-02-17T17:31:45.074Z,25.23
2019-02-17T17:34:15.507Z,25.07
2019-02-17T17:36:45.967Z,22.77
2019-02-17T17:39:16.351Z,24.13
2019-02-17T17:41:47.120Z,28.20
2019-02-17T17:44:18.791Z,28.47
2019-02-17T17:46:49.121Z,26.30
2019-02-17T17:49:19.629Z,27.10
2019-02-17T17:51:50.148Z,32.03
2019-02-17T17:54:20.430Z,27.20
2019-02-17T17:56:51.813Z,31.47
2019-02-17T17:59:23.191Z,23.97
2019-02-17T18:01:53.511Z,23.40
2019-02-17T18:04:23.905Z,26.17
2019-02-17T18:06:54.335Z,26.07
2019-02-17T18:09:24.620Z,27.87
2019-02-17T18:11:55.244Z,27.87
2019-02-17T18:14:25.733Z,29.37
2019-02-17T18:16:56.272Z,30.53
2019-02-17T18:19:26.843Z,27.63
2019-02-17T18:21:58.369Z,29.10
2019-02-17T18:24:28.900Z,27.70
2019-02-17T18:26:59.617Z,30.80
2019-02-17T18:29:29.894Z,27.67
2019-02-17T18:32:00.788Z,30.67
2019-02-17T18:34:31.554Z,29.20
2019-02-17T18:37:02.046Z,29.00
2019-02-17T18:39:32.340Z,36.13
2019-02-17T18:42:02.621Z,34.37
2019-02-17T18:44:33.212Z,32.97
2019-02-17T18:47:03.559Z,34.23
2019-02-17T18:49:33.933Z,33.43
2019-02-17T18:52:04.606Z,36.33
2019-02-17T18:54:38.447Z,41.20
2019-02-17T18:57:08.759Z,40.03
2019-02-17T18:59:39.569Z,38.10
2019-02-17T19:02:09.860Z,49.47
2019-02-17T19:04:40.330Z,47.07
2019-02-17T19:07:10.711Z,48.03
2019-02-17T19:09:41.403Z,48.53
2019-02-17T19:12:11.729Z,48.23
2019-02-17T19:14:42.433Z,58.27
2019-02-17T19:17:12.716Z,48.13
2019-02-17T19:19:43.508Z,47.67
2019-02-17T19:22:14.578Z,47.30
2019-02-17T19:24:45.191Z,44.60
2019-02-17T19:27:15.701Z,49.30
2019-02-17T19:29:46.547Z,46.33
2019-02-17T19:32:16.855Z,48.87
2019-02-17T19:34:47.393Z,47.50
2019-02-17T19:37:17.788Z,47.17
2019-02-17T19:39:48.387Z,51.23
2019-02-17T19:42:18.699Z,57.33
2019-02-17T19:44:49.393Z,46.50
2019-02-17T19:47:20.858Z,46.07
2019-02-17T19:49:51.343Z,44.60
2019-02-17T19:52:21.647Z,46.83
2019-02-17T19:54:51.962Z,38.27
2019-02-17T19:57:22.259Z,44.73
2019-02-17T19:59:53.204Z,38.77
2019-02-17T20:02:39.980Z,36.67
2019-02-17T20:05:14.572Z,41.13
2019-02-17T20:07:44.829Z,42.13
2019-02-17T20:10:15.588Z,43.00
2019-02-17T20:12:45.875Z,42.63
2019-02-17T20:15:16.346Z,38.93
2019-02-17T20:17:47.783Z,38.77
2019-02-17T20:20:18.187Z,38.73
2019-02-17T20:22:49.410Z,40.93
2019-02-17T20:25:21.175Z,37.03
2019-02-17T20:27:51.476Z,38.50
2019-02-17T20:30:22.379Z,42.00
2019-02-17T20:32:52.796Z,45.30
2019-02-17T20:35:23.327Z,43.83
2019-02-17T20:37:53.671Z,42.03
2019-02-17T20:40:24.384Z,53.73
2019-02-17T20:42:54.821Z,39.03
2019-02-17T20:45:25.519Z,44.43
2019-02-17T20:47:55.857Z,42.03
2019-02-17T20:50:26.506Z,40.03
2019-02-17T20:52:57.090Z,40.50
2019-02-17T20:55:27.563Z,38.73
2019-02-17T20:57:57.886Z,42.63
2019-02-17T21:00:29.576Z,39.07
2019-02-17T21:02:59.807Z,40.17
2019-02-17T21:05:31.523Z,42.63
2019-02-17T21:08:02.800Z,49.47
2019-02-17T21:10:33.790Z,36.80
2019-02-17T21:13:04.274Z,44.40
2019-02-17T21:15:34.876Z,41.57
2019-02-17T21:18:05.175Z,43.50
2019-02-17T21:20:35.850Z,45.37
2019-02-17T21:23:07.002Z,44.77
2019-02-17T21:25:37.580Z,41.67
2019-02-17T21:28:07.969Z,41.00
2019-02-17T21:30:38.674Z,44.27
2019-02-17T21:33:09.000Z,45.57
2019-02-17T21:35:41.336Z,47.70
2019-02-17T21:38:11.667Z,49.23
2019-02-17T21:40:42.108Z,53.03
2019-02-17T21:43:12.355Z,52.60
2019-02-17T21:45:42.633Z,51.53
2019-02-17T21:48:13.281Z,41.80
2019-02-17T21:50:43.835Z,52.20
2019-02-17T21:53:20.479Z,52.10
2019-02-17T21:55:47.848Z,50.23
2019-02-17T21:58:18.458Z,55.57
2019-02-17T22:00:49.603Z,52.80
2019-02-17T22:03:20.164Z,49.77
2019-02-17T22:05:50.520Z,53.80
2019-02-17T22:08:21.207Z,55.53
2019-02-17T22:10:51.459Z,58.70
2019-02-17T22:13:21.753Z,64.83
2019-02-17T22:15:52.282Z,67.90
2019-02-17T22:18:23.627Z,83.60
2019-02-17T22:20:53.954Z,82.83
2019-02-17T22:23:25.595Z,93.10
2019-02-17T22:25:55.932Z,100.73
2019-02-17T22:28:26.257Z,89.77
2019-02-17T22:30:56.891Z,85.97
2019-02-17T22:33:27.250Z,91.77
2019-02-17T22:35:57.569Z,92.07
2019-02-17T22:38:28.172Z,86.17
2019-02-17T22:40:58.453Z,87.87
2019-02-17T22:43:29.755Z,90.73
2019-02-17T22:46:00.366Z,80.43
2019-02-17T22:48:30.634Z,89.83
2019-02-17T22:51:00.914Z,81.47
2019-02-17T22:53:31.381Z,77.43
2019-02-17T22:56:01.628Z,86.23
2019-02-17T22:58:31.883Z,84.50
2019-02-17T23:01:04.801Z,79.10
2019-02-17T23:03:37.012Z,80.67
2019-02-17T23:06:07.941Z,84.30
2019-02-17T23:08:38.475Z,82.47
2019-02-17T23:11:09.519Z,84.57
2019-02-17T23:13:40.056Z,80.93
2019-02-17T23:16:10.709Z,87.63
2019-02-17T23:18:40.978Z,86.73
2019-02-17T23:21:11.458Z,84.30
2019-02-17T23:23:42.884Z,79.57
2019-02-17T23:26:13.441Z,84.73
2019-02-17T23:28:43.771Z,82.40
2019-02-17T23:31:15.112Z,87.30
2019-02-17T23:33:45.364Z,71.80
2019-02-17T23:36:16.131Z,78.33
2019-02-17T23:38:46.365Z,72.90
2019-02-17T23:41:16.639Z,74.07
2019-02-17T23:43:47.757Z,77.80
2019-02-17T23:46:18.012Z,82.57
2019-02-17T23:48:48.509Z,78.30
2019-02-17T23:51:18.771Z,75.23
2019-02-17T23:53:49.265Z,74.87
2019-02-17T23:56:19.547Z,70.47
2019-02-17T23:58:50.018Z,70.20
